createdAt,value
2023-04-22T00:02:17.483Z,100376.83
2023-04-22T00:04:46.629Z,100378.89
2023-04-22T00:07:15.828Z,100376.50
2023-04-22T00:09:44.119Z,100379.64
2023-04-22T00:12:12.494Z,100376.16
2023-04-22T00:14:40.508Z,100377.94
2023-04-22T00:17:08.369Z,100372.48
2023-04-22T00:19:37.403Z,100375.45
2023-04-22T00:22:05.754Z,100374.96
2023-04-22T00:24:33.645Z,100376.32
2023-04-22T00:27:01.392Z,100374.91
2023-04-22T00:29:29.130Z,100372.67
2023-04-22T00:31:56.958Z,100374.22
2023-04-22T00:34:24.781Z,100370.79
2023-04-22T00:36:52.652Z,100368.20
2023-04-22T00:39:20.608Z,100368.86
2023-04-22T00:41:48.396Z,100365.05
2023-04-22T00:44:17.305Z,100366.97
2023-04-22T00:46:46.121Z,100366.84
2023-04-22T00:49:15.586Z,100366.23
2023-04-22T00:51:43.932Z,100365.04
2023-04-22T00:54:11.704Z,100367.02
2023-04-22T00:56:39.910Z,100365.55
2023-04-22T00:59:09.448Z,100366.45
2023-04-22T01:01:37.713Z,100364.15
2023-04-22T01:04:05.612Z,100363.09
2023-04-22T01:06:35.447Z,100363.28
2023-04-22T01:09:03.284Z,100363.40
2023-04-22T01:11:31.647Z,100362.30
2023-04-22T01:13:59.381Z,100365.69
2023-04-22T01:16:29.026Z,100366.13
2023-04-22T01:18:57.034Z,100367.01
2023-04-22T01:21:26.825Z,100367.45
2023-04-22T01:23:54.599Z,100369.08
2023-04-22T01:26:23.613Z,100370.02
2023-04-22T01:28:52.022Z,100370.58
2023-04-22T01:31:20.261Z,100368.29
2023-04-22T01:33:48.483Z,100366.10
2023-04-22T01:36:17.080Z,100369.42
2023-04-22T01:38:45.221Z,100371.83
2023-04-22T01:41:13.845Z,100371.36
2023-04-22T01:43:42.960Z,100371.02
2023-04-22T01:46:10.776Z,100372.95
2023-04-22T01:48:38.674Z,100369.96
2023-04-22T01:51:06.455Z,100368.47
2023-04-22T01:53:34.274Z,100367.70
2023-04-22T01:56:02.468Z,100365.85
2023-04-22T01:58:30.869Z,100365.02
2023-04-22T02:00:58.773Z,100365.99
2023-04-22T02:03:26.657Z,100365.42
2023-04-22T02:05:55.258Z,100361.66
2023-04-22T02:08:23.366Z,100363.27
2023-04-22T02:10:51.171Z,100359.77
2023-04-22T02:13:18.959Z,100360.18
2023-04-22T02:15:46.889Z,100360.80
2023-04-22T02:18:14.655Z,100358.85
2023-04-22T02:20:42.953Z,100360.52
2023-04-22T02:23:11.497Z,100359.73
2023-04-22T02:25:39.713Z,100359.11
2023-04-22T02:28:08.590Z,100359.70
2023-04-22T02:30:36.791Z,100356.39
2023-04-22T02:33:06.731Z,100358.27
2023-04-22T02:35:34.579Z,100357.94
2023-04-22T02:38:02.999Z,100360.27
2023-04-22T02:40:30.837Z,100361.08
2023-04-22T02:42:58.642Z,100361.29
2023-04-22T02:45:26.439Z,100362.90
2023-04-22T02:47:54.313Z,100359.17
2023-04-22T02:50:22.131Z,100358.52
2023-04-22T02:52:49.942Z,100353.48
2023-04-22T02:55:17.888Z,100355.77
2023-04-22T02:57:46.144Z,100358.48
2023-04-22T03:00:14.521Z,100355.61
2023-04-22T03:02:42.506Z,100357.91
2023-04-22T03:05:16.057Z,100357.42
2023-04-22T03:07:44.666Z,100355.26
2023-04-22T03:10:12.662Z,100355.84
2023-04-22T03:12:40.891Z,100356.35
2023-04-22T03:15:09.321Z,100358.81
2023-04-22T03:17:37.221Z,100360.67
2023-04-22T03:20:09.054Z,100360.89
2023-04-22T03:22:36.987Z,100364.91
2023-04-22T03:25:06.452Z,100362.84
2023-04-22T03:27:34.286Z,100367.13
2023-04-22T03:30:02.334Z,100366.66
2023-04-22T03:32:30.696Z,100366.72
2023-04-22T03:35:18.805Z,100367.77
2023-04-22T03:37:48.137Z,100365.23
2023-04-22T03:40:19.182Z,100367.56
2023-04-22T03:42:47.163Z,100369.42
2023-04-22T03:45:15.522Z,100373.66
2023-04-22T03:47:46.436Z,100374.19
2023-04-22T03:50:22.128Z,100375.71
2023-04-22T03:52:50.385Z,100374.05
2023-04-22T03:55:19.919Z,100375.12
2023-04-22T03:57:48.082Z,100378.28
2023-04-22T04:00:16.096Z,100382.61
2023-04-22T04:02:45.162Z,100381.15
2023-04-22T04:05:16.859Z,100382.40
2023-04-22T04:07:44.779Z,100385.61
2023-04-22T04:10:14.046Z,100386.32
2023-04-22T04:12:41.867Z,100390.41
2023-04-22T04:15:10.563Z,100388.34
2023-04-22T04:17:38.449Z,100390.66
2023-04-22T04:20:07.428Z,100392.11
2023-04-22T04:22:36.123Z,100390.02
2023-04-22T04:25:06.940Z,100393.40
2023-04-22T04:27:39.254Z,100395.19
2023-04-22T04:30:08.132Z,100395.94
2023-04-22T04:32:43.101Z,100398.75
2023-04-22T04:35:16.084Z,100396.46
2023-04-22T04:37:47.391Z,100392.83
2023-04-22T04:40:16.335Z,100390.23
2023-04-22T04:42:48.578Z,100392.81
2023-04-22T04:45:20.748Z,100395.54
2023-04-22T04:47:50.828Z,100400.19
2023-04-22T04:50:23.371Z,100401.26
2023-04-22T04:52:52.725Z,100399.20
2023-04-22T04:55:24.301Z,100396.65
2023-04-22T04:57:52.601Z,100400.23
2023-04-22T05:00:20.574Z,100402.27
2023-04-22T05:02:49.077Z,100401.20
2023-04-22T05:05:17.008Z,100402.32
2023-04-22T05:07:44.975Z,100400.14
2023-04-22T05:10:13.783Z,100402.09
2023-04-22T05:12:42.065Z,100400.06
2023-04-22T05:15:11.834Z,100399.86
2023-04-22T05:17:40.705Z,100404.08
2023-04-22T05:20:09.482Z,100403.89
2023-04-22T05:22:37.433Z,100397.77
2023-04-22T05:25:05.709Z,100399.39
2023-04-22T05:27:35.519Z,100399.29
2023-04-22T05:30:04.486Z,100398.15
2023-04-22T05:32:32.790Z,100400.98
2023-04-22T05:35:01.381Z,100399.29
2023-04-22T05:37:29.334Z,100397.29
2023-04-22T05:39:57.117Z,100392.49
2023-04-22T05:42:25.260Z,100389.92
2023-04-22T05:44:53.418Z,100390.95
2023-04-22T05:47:21.380Z,100389.90
2023-04-22T05:49:49.886Z,100391.08
2023-04-22T05:52:30.495Z,100391.04
2023-04-22T05:55:04.388Z,100393.21
2023-04-22T05:57:32.261Z,100389.77
2023-04-22T06:00:00.826Z,100391.92
2023-04-22T06:02:28.706Z,100387.64
2023-04-22T06:04:58.214Z,100388.84
2023-04-22T06:07:26.577Z,100385.34
2023-04-22T06:10:03.802Z,100385.52
2023-04-22T06:12:34.516Z,100388.18
2023-04-22T06:15:02.374Z,100390.35
2023-04-22T06:17:30.496Z,100389.11
2023-04-22T06:19:58.780Z,100385.91
2023-04-22T06:22:26.647Z,100389.38
2023-04-22T06:24:54.445Z,100388.89
2023-04-22T06:27:22.304Z,100387.80
2023-04-22T06:29:50.096Z,100390.23
2023-04-22T06:32:17.939Z,100386.52
2023-04-22T06:34:45.775Z,100385.78
2023-04-22T06:37:13.662Z,100383.46
2023-04-22T06:39:41.868Z,100380.42
2023-04-22T06:42:41.866Z,100382.95
2023-04-22T06:45:39.274Z,100384.63
2023-04-22T06:48:42.539Z,100380.77
2023-04-22T06:51:21.340Z,100379.58
2023-04-22T06:53:49.237Z,100382.35
2023-04-22T06:56:17.278Z,100376.67
2023-04-22T06:58:45.107Z,100380.85
2023-04-22T07:01:13.193Z,100379.49
2023-04-22T07:03:41.759Z,100377.31
2023-04-22T07:06:12.124Z,100379.05
2023-04-22T07:08:40.248Z,100377.05
2023-04-22T07:11:09.027Z,100377.37
2023-04-22T07:14:03.040Z,100377.36
2023-04-22T07:16:31.077Z,100382.47
2023-04-22T07:18:59.288Z,100377.06
2023-04-22T07:21:27.048Z,100380.70
2023-04-22T07:23:54.929Z,100379.30
2023-04-22T07:26:22.699Z,100380.01
2023-04-22T07:28:50.490Z,100379.27
2023-04-22T07:31:18.416Z,100379.01
2023-04-22T07:33:46.383Z,100374.60
2023-04-22T07:36:14.074Z,100375.64
2023-04-22T07:38:41.800Z,100376.45
2023-04-22T07:41:09.644Z,100369.73
2023-04-22T07:43:37.585Z,100368.85
2023-04-22T07:46:05.395Z,100369.62
2023-04-22T07:48:33.186Z,100369.05
2023-04-22T07:51:00.957Z,100365.11
2023-04-22T07:53:28.750Z,100365.30
2023-04-22T07:55:56.635Z,100367.06
2023-04-22T07:58:24.334Z,100368.25
2023-04-22T08:00:52.147Z,100365.09
2023-04-22T08:03:20.061Z,100364.47
2023-04-22T08:05:48.046Z,100364.28
2023-04-22T08:08:15.783Z,100365.77
2023-04-22T08:10:43.554Z,100366.99
2023-04-22T08:13:11.604Z,100366.75
2023-04-22T08:15:40.001Z,100363.20
2023-04-22T08:18:07.848Z,100363.91
2023-04-22T08:20:35.633Z,100360.99
2023-04-22T08:23:03.418Z,100365.10
2023-04-22T08:25:31.613Z,100362.55
2023-04-22T08:27:59.407Z,100363.04
2023-04-22T08:30:27.174Z,100363.81
2023-04-22T08:32:55.079Z,100361.25
2023-04-22T08:35:22.846Z,100361.52
2023-04-22T08:37:50.668Z,100362.68
2023-04-22T08:40:18.496Z,100361.41
2023-04-22T08:42:47.010Z,100361.76
2023-04-22T08:45:16.111Z,100360.57
2023-04-22T08:47:44.126Z,100359.25
2023-04-22T08:50:12.122Z,100357.25
2023-04-22T08:52:44.179Z,100347.27
2023-04-22T08:55:11.906Z,100350.02
2023-04-22T08:57:41.035Z,100350.32
2023-04-22T09:00:09.853Z,100344.16
2023-04-22T09:02:38.818Z,100344.63
2023-04-22T09:05:09.141Z,100341.98
2023-04-22T09:07:38.674Z,100341.11
2023-04-22T09:10:08.382Z,100336.17
2023-04-22T09:12:37.481Z,100339.63
2023-04-22T09:15:07.325Z,100339.20
2023-04-22T09:17:38.349Z,100340.16
2023-04-22T09:20:08.781Z,100335.84
2023-04-22T09:22:48.534Z,100333.52
2023-04-22T09:25:17.643Z,100331.69
2023-04-22T09:28:03.849Z,100332.74
2023-04-22T09:30:37.695Z,100327.54
2023-04-22T09:33:07.397Z,100321.20
2023-04-22T09:35:37.871Z,100316.33
2023-04-22T09:38:08.276Z,100309.05
2023-04-22T09:40:37.968Z,100311.19
2023-04-22T09:43:07.675Z,100306.11
2023-04-22T09:45:36.311Z,100303.88
2023-04-22T09:48:17.833Z,100301.41
2023-04-22T09:50:49.334Z,100298.41
2023-04-22T09:53:20.315Z,100295.30
2023-04-22T09:55:51.282Z,100297.23
2023-04-22T09:58:21.486Z,100293.44
2023-04-22T10:00:58.181Z,100291.13
2023-04-22T10:03:26.228Z,100293.69
2023-04-22T10:05:54.090Z,100290.67
2023-04-22T10:08:21.884Z,100286.91
2023-04-22T10:10:49.624Z,100287.08
2023-04-22T10:13:17.360Z,100283.52
2023-04-22T10:15:53.569Z,100285.30
2023-04-22T10:18:29.721Z,100283.09
2023-04-22T10:20:59.169Z,100280.85
2023-04-22T10:23:32.998Z,100278.00
2023-04-22T10:26:01.046Z,100279.84
2023-04-22T10:28:30.304Z,100279.84
2023-04-22T10:30:58.142Z,100281.32
2023-04-22T10:33:28.939Z,100276.06
2023-04-22T10:36:06.068Z,100276.02
2023-04-22T10:38:57.766Z,100273.11
2023-04-22T10:41:29.136Z,100268.18
2023-04-22T10:44:01.696Z,100267.22
2023-04-22T10:46:32.903Z,100269.16
2023-04-22T10:49:11.290Z,100265.40
2023-04-22T10:51:39.162Z,100264.09
2023-04-22T10:54:07.593Z,100258.60
2023-04-22T10:56:37.469Z,100255.40
2023-04-22T10:59:17.242Z,100255.27
2023-04-22T11:01:45.283Z,100255.48
2023-04-22T11:04:20.881Z,100255.55
2023-04-22T11:07:26.731Z,100251.61
2023-04-22T11:10:09.667Z,100245.64
2023-04-22T11:12:42.052Z,100246.48
2023-04-22T11:15:13.233Z,100243.38
2023-04-22T11:17:52.148Z,100240.37
2023-04-22T11:20:20.635Z,100236.00
2023-04-22T11:22:56.794Z,100237.02
2023-04-22T11:25:26.203Z,100238.60
2023-04-22T11:27:55.389Z,100237.30
2023-04-22T11:30:25.024Z,100235.78
2023-04-22T11:32:55.975Z,100228.33
2023-04-22T11:35:27.063Z,100229.62
2023-04-22T11:38:01.327Z,100229.36
2023-04-22T11:40:33.319Z,100221.95
2023-04-22T11:43:05.105Z,100224.98
2023-04-22T11:45:34.877Z,100222.91
2023-04-22T11:48:05.390Z,100221.81
2023-04-22T11:50:38.452Z,100220.77
2023-04-22T11:53:20.959Z,100214.77
2023-04-22T11:55:51.248Z,100215.38
2023-04-22T11:58:27.368Z,100214.80
2023-04-22T12:00:58.592Z,100211.95
2023-04-22T12:03:31.398Z,100210.80
2023-04-22T12:06:04.744Z,100211.60
2023-04-22T12:08:35.664Z,100206.03
2023-04-22T12:11:05.969Z,100204.63
2023-04-22T12:13:42.221Z,100201.97
2023-04-22T12:16:13.442Z,100202.21
2023-04-22T12:18:47.925Z,100201.90
2023-04-22T12:21:19.100Z,100201.13
2023-04-22T12:23:54.141Z,100201.06
2023-04-22T12:26:26.686Z,100195.75
2023-04-22T12:28:57.028Z,100200.86
2023-04-22T12:31:25.289Z,100196.45
2023-04-22T12:33:54.174Z,100197.27
2023-04-22T12:36:22.316Z,100194.85
2023-04-22T12:38:51.114Z,100192.21
2023-04-22T12:41:19.078Z,100189.56
2023-04-22T12:43:47.075Z,100189.95
2023-04-22T12:46:15.098Z,100183.78
2023-04-22T12:48:43.082Z,100184.77
2023-04-22T12:51:10.866Z,100179.23
2023-04-22T12:53:38.666Z,100178.26
2023-04-22T12:56:06.468Z,100177.24
2023-04-22T12:58:34.174Z,100171.19
2023-04-22T13:01:01.932Z,100166.78
2023-04-22T13:03:29.846Z,100164.75
2023-04-22T13:05:57.722Z,100164.14
2023-04-22T13:08:25.997Z,100162.03
2023-04-22T13:10:54.099Z,100165.64
2023-04-22T13:13:21.865Z,100164.77
2023-04-22T13:15:53.828Z,100159.38
2023-04-22T13:18:23.681Z,100156.17
2023-04-22T13:20:51.747Z,100156.75
2023-04-22T13:23:21.923Z,100153.73
2023-04-22T13:25:50.568Z,100154.45
2023-04-22T13:28:19.028Z,100149.19
2023-04-22T13:30:47.089Z,100147.21
2023-04-22T13:33:14.957Z,100144.05
2023-04-22T13:35:43.032Z,100142.05
2023-04-22T13:38:11.002Z,100145.45
2023-04-22T13:40:38.810Z,100140.02
2023-04-22T13:43:08.812Z,100138.77
2023-04-22T13:45:37.047Z,100134.79
2023-04-22T13:48:05.198Z,100136.42
2023-04-22T13:50:34.046Z,100134.40
2023-04-22T13:53:03.939Z,100137.75
2023-04-22T13:55:31.839Z,100132.20
2023-04-22T13:58:01.270Z,100129.23
2023-04-22T14:00:29.154Z,100130.38
2023-04-22T14:02:57.336Z,100128.50
2023-04-22T14:05:25.886Z,100130.15
2023-04-22T14:07:54.501Z,100128.39
2023-04-22T14:10:22.543Z,100126.05
2023-04-22T14:12:50.865Z,100124.90
2023-04-22T14:15:19.205Z,100125.86
2023-04-22T14:17:49.524Z,100121.73
2023-04-22T14:20:18.087Z,100120.33
2023-04-22T14:22:46.483Z,100118.66
2023-04-22T14:25:14.788Z,100120.25
2023-04-22T14:27:42.940Z,100118.97
2023-04-22T14:30:11.416Z,100118.59
2023-04-22T14:32:39.304Z,100117.30
2023-04-22T14:35:07.332Z,100111.88
2023-04-22T14:37:35.831Z,100114.30
2023-04-22T14:40:04.281Z,100108.33
2023-04-22T14:42:32.207Z,100108.27
2023-04-22T14:45:00.134Z,100104.73
2023-04-22T14:47:28.135Z,100103.24
2023-04-22T14:49:56.389Z,100105.63
2023-04-22T14:52:24.415Z,100102.27
2023-04-22T14:54:52.306Z,100105.02
2023-04-22T14:57:20.102Z,100107.80
2023-04-22T14:59:48.163Z,100105.61
2023-04-22T15:02:16.338Z,100104.27
2023-04-22T15:04:44.573Z,100105.46
2023-04-22T15:07:12.432Z,100101.94
2023-04-22T15:09:40.608Z,100104.48
2023-04-22T15:12:08.592Z,100101.09
2023-04-22T15:14:36.652Z,100099.63
2023-04-22T15:17:05.727Z,100100.61
2023-04-22T15:19:33.528Z,100099.36
2023-04-22T15:22:01.581Z,100097.23
2023-04-22T15:24:29.326Z,100092.82
2023-04-22T15:26:58.056Z,100092.98
2023-04-22T15:29:26.664Z,100096.34
2023-04-22T15:31:55.117Z,100092.98
2023-04-22T15:34:23.889Z,100092.96
2023-04-22T15:36:51.847Z,100092.30
2023-04-22T15:39:20.803Z,100089.48
2023-04-22T15:41:48.452Z,100084.88
2023-04-22T15:44:16.849Z,100082.45
2023-04-22T15:46:46.020Z,100083.23
2023-04-22T15:49:14.895Z,100086.55
2023-04-22T15:51:43.214Z,100083.88
2023-04-22T15:54:12.341Z,100083.39
2023-04-22T15:56:40.580Z,100083.47
2023-04-22T15:59:08.362Z,100080.94
2023-04-22T16:01:38.637Z,100077.68
2023-04-22T16:04:07.715Z,100077.45
2023-04-22T16:06:36.513Z,100077.94
2023-04-22T16:09:05.018Z,100071.20
2023-04-22T16:11:32.827Z,100073.24
2023-04-22T16:14:02.038Z,100074.08
2023-04-22T16:16:30.383Z,100074.05
2023-04-22T16:18:59.904Z,100074.58
2023-04-22T16:21:28.858Z,100073.05
2023-04-22T16:23:56.705Z,100070.42
2023-04-22T16:26:24.536Z,100069.92
2023-04-22T16:28:52.278Z,100070.92
2023-04-22T16:31:23.065Z,100072.34
2023-04-22T16:33:51.852Z,100071.81
2023-04-22T16:36:19.605Z,100072.99
2023-04-22T16:38:47.310Z,100073.09
2023-04-22T16:41:15.536Z,100072.48
2023-04-22T16:43:43.361Z,100071.73
2023-04-22T16:46:11.459Z,100067.54
2023-04-22T16:48:39.444Z,100068.70
2023-04-22T16:51:07.287Z,100064.58
2023-04-22T16:53:35.895Z,100065.61
2023-04-22T16:56:03.771Z,100065.06
2023-04-22T16:58:31.555Z,100062.09
2023-04-22T17:00:59.394Z,100069.36
2023-04-22T17:03:27.254Z,100071.35
2023-04-22T17:05:55.741Z,100071.56
2023-04-22T17:08:23.516Z,100073.02
2023-04-22T17:10:52.467Z,100071.61
2023-04-22T17:13:20.873Z,100071.30
2023-04-22T17:15:48.764Z,100070.30
2023-04-22T17:18:16.621Z,100072.02
2023-04-22T17:20:44.537Z,100075.34
2023-04-22T17:23:12.322Z,100074.36
2023-04-22T17:25:40.125Z,100074.02
2023-04-22T17:28:08.093Z,100076.02
2023-04-22T17:30:36.149Z,100073.34
2023-04-22T17:33:04.094Z,100072.89
2023-04-22T17:35:31.858Z,100075.59
2023-04-22T17:37:59.594Z,100079.39
2023-04-22T17:40:27.391Z,100080.20
2023-04-22T17:42:55.744Z,100080.85
2023-04-22T17:45:23.671Z,100082.27
2023-04-22T17:47:51.455Z,100085.20
2023-04-22T17:50:19.704Z,100087.77
2023-04-22T17:52:47.567Z,100091.60
2023-04-22T17:55:15.546Z,100093.58
2023-04-22T17:57:43.252Z,100095.31
2023-04-22T18:00:11.737Z,100095.90
2023-04-22T18:02:41.864Z,100097.85
2023-04-22T18:05:10.053Z,100098.88
2023-04-22T18:07:37.849Z,100100.20
2023-04-22T18:10:07.525Z,100107.89
2023-04-22T18:12:35.504Z,100107.13
2023-04-22T18:15:04.754Z,100108.99
2023-04-22T18:17:32.717Z,100108.42
2023-04-22T18:20:10.261Z,100108.89
2023-04-22T18:22:45.581Z,100112.67
2023-04-22T18:25:13.438Z,100110.00
2023-04-22T18:27:41.798Z,100113.85
2023-04-22T18:30:10.200Z,100112.55
2023-04-22T18:32:38.647Z,100119.05
2023-04-22T18:35:07.284Z,100119.63
2023-04-22T18:37:35.186Z,100119.46
2023-04-22T18:40:03.075Z,100117.34
2023-04-22T18:42:30.837Z,100121.59
2023-04-22T18:44:58.655Z,100125.86
2023-04-22T18:47:26.842Z,100128.15
2023-04-22T18:49:54.780Z,100129.80
2023-04-22T18:52:22.477Z,100126.17
2023-04-22T18:54:50.366Z,100127.27
2023-04-22T18:57:18.191Z,100127.03
2023-04-22T18:59:46.216Z,100126.78
2023-04-22T19:02:14.082Z,100129.73
2023-04-22T19:04:42.281Z,100130.70
2023-04-22T19:07:10.487Z,100130.84
2023-04-22T19:09:38.296Z,100128.45
2023-04-22T19:12:13.457Z,100128.48
2023-04-22T19:14:41.723Z,100129.64
2023-04-22T19:17:10.114Z,100131.73
2023-04-22T19:19:38.104Z,100130.90
2023-04-22T19:22:05.988Z,100133.11
2023-04-22T19:24:35.271Z,100130.09
2023-04-22T19:27:03.466Z,100130.80
2023-04-22T19:29:31.541Z,100128.39
2023-04-22T19:31:59.855Z,100129.27
2023-04-22T19:34:28.676Z,100126.69
2023-04-22T19:36:56.485Z,100124.64
2023-04-22T19:39:24.454Z,100131.25
2023-04-22T19:41:52.455Z,100129.20
2023-04-22T19:44:20.214Z,100129.69
2023-04-22T19:46:48.432Z,100126.19
2023-04-22T19:49:17.542Z,100130.83
2023-04-22T19:51:45.945Z,100127.70
2023-04-22T19:54:14.978Z,100124.35
2023-04-22T19:56:43.451Z,100122.77
2023-04-22T19:59:13.086Z,100129.92
2023-04-22T20:01:41.306Z,100131.15
2023-04-22T20:04:09.472Z,100131.48
2023-04-22T20:06:38.187Z,100130.80
2023-04-22T20:09:07.147Z,100132.66
2023-04-22T20:11:35.304Z,100125.08
2023-04-22T20:14:07.365Z,100126.77
2023-04-22T20:16:36.293Z,100125.71
2023-04-22T20:19:04.619Z,100123.54
2023-04-22T20:21:34.453Z,100125.25
2023-04-22T20:24:04.365Z,100125.80
2023-04-22T20:26:32.718Z,100125.19
2023-04-22T20:29:01.288Z,100122.13
2023-04-22T20:31:29.362Z,100121.99
2023-04-22T20:33:57.291Z,100123.19
2023-04-22T20:36:26.492Z,100121.01
2023-04-22T20:38:55.062Z,100120.30
2023-04-22T20:41:24.612Z,100123.03
2023-04-22T20:43:53.163Z,100122.48
2023-04-22T20:46:23.093Z,100123.52
2023-04-22T20:48:51.735Z,100121.48
2023-04-22T20:51:19.624Z,100122.80
2023-04-22T20:53:47.436Z,100120.40
2023-04-22T20:56:15.723Z,100119.11
2023-04-22T20:58:43.447Z,100119.86
2023-04-22T21:01:12.161Z,100119.89
2023-04-22T21:03:40.284Z,100123.64
2023-04-22T21:06:09.064Z,100122.34
2023-04-22T21:08:39.417Z,100126.20
2023-04-22T21:11:07.507Z,100124.39
2023-04-22T21:13:35.927Z,100127.54
2023-04-22T21:16:07.908Z,100124.02
2023-04-22T21:18:39.486Z,100124.18
2023-04-22T21:21:08.226Z,100122.62
2023-04-22T21:23:36.617Z,100118.94
2023-04-22T21:26:05.494Z,100120.32
2023-04-22T21:28:33.596Z,100116.95
2023-04-22T21:31:01.699Z,100120.71
2023-04-22T21:33:29.460Z,100117.80
2023-04-22T21:35:57.260Z,100119.20
2023-04-22T21:38:25.692Z,100117.83
2023-04-22T21:40:53.525Z,100118.94
2023-04-22T21:43:21.285Z,100123.71
2023-04-22T21:45:49.265Z,100124.75
2023-04-22T21:48:17.174Z,100127.74
2023-04-22T21:50:44.898Z,100128.80
2023-04-22T21:53:13.187Z,100127.98
2023-04-22T21:55:41.661Z,100130.21
2023-04-22T21:58:09.450Z,100133.12
2023-04-22T22:00:37.896Z,100131.30
2023-04-22T22:03:06.233Z,100129.59
2023-04-22T22:05:34.261Z,100125.23
2023-04-22T22:08:02.042Z,100126.19
2023-04-22T22:10:30.067Z,100123.02
2023-04-22T22:12:57.795Z,100122.80
2023-04-22T22:15:25.666Z,100121.70
2023-04-22T22:17:53.484Z,100127.33
2023-04-22T22:20:21.308Z,100130.50
2023-04-22T22:22:48.998Z,100128.91
2023-04-22T22:25:17.083Z,100128.45
2023-04-22T22:27:46.719Z,100130.95
2023-04-22T22:30:19.036Z,100130.00
2023-04-22T22:32:47.043Z,100131.74
2023-04-22T22:35:15.206Z,100135.01
2023-04-22T22:37:44.779Z,100131.49
2023-04-22T22:40:12.623Z,100129.69
2023-04-22T22:42:40.657Z,100130.77
2023-04-22T22:45:09.156Z,100130.92
2023-04-22T22:47:37.189Z,100128.40
2023-04-22T22:50:07.008Z,100132.86
2023-04-22T22:52:34.798Z,100131.54
2023-04-22T22:55:02.670Z,100130.51
2023-04-22T22:57:30.419Z,100129.73
2023-04-22T22:59:58.214Z,100133.20
2023-04-22T23:02:26.421Z,100132.59
2023-04-22T23:04:54.984Z,100135.95
2023-04-22T23:07:22.694Z,100134.81
2023-04-22T23:09:50.516Z,100133.80
2023-04-22T23:12:18.288Z,100133.92
2023-04-22T23:14:46.025Z,100133.36
2023-04-22T23:17:13.816Z,100128.33
2023-04-22T23:19:43.223Z,100131.89
2023-04-22T23:22:12.475Z,100128.98
2023-04-22T23:24:40.807Z,100129.02
2023-04-22T23:27:09.016Z,100126.08
2023-04-22T23:29:37.369Z,100129.27
2023-04-22T23:32:07.555Z,100129.98
2023-04-22T23:34:35.851Z,100127.02
2023-04-22T23:37:06.046Z,100123.52
2023-04-22T23:39:33.972Z,100122.30
2023-04-22T23:42:02.546Z,100120.13
2023-04-22T23:44:30.280Z,100118.98
2023-04-22T23:46:58.101Z,100117.47
2023-04-22T23:49:25.855Z,100116.32
2023-04-22T23:51:53.812Z,100118.04
2023-04-22T23:54:22.182Z,100115.69
2023-04-22T23:56:50.564Z,100113.02
2023-04-22T23:59:18.629Z,100112.02
